createdAt,value
2022-09-20T00:09:48.615Z,8.8
2022-09-20T00:19:51.001Z,8.9
2022-09-20T00:59:59.459Z,8.4
2022-09-20T01:20:04.406Z,8.6
2022-09-20T02:00:12.507Z,8.8
2022-09-20T02:10:14.718Z,8.7
2022-09-20T02:20:16.744Z,8.6
2022-09-20T02:30:19.372Z,8.6
2022-09-20T02:50:24.151Z,8.6
2022-09-20T03:10:28.152Z,8.4
2022-09-20T03:20:30.470Z,8.3
2022-09-20T03:30:33.025Z,8.2
2022-09-20T03:40:35.153Z,8.1
2022-09-20T03:50:37.278Z,7.9
2022-09-20T04:00:39.279Z,7.7
2022-09-20T04:10:41.700Z,7.6
2022-09-20T04:20:43.624Z,7.5
2022-09-20T04:30:45.448Z,7.9
2022-09-20T04:40:47.322Z,8.1
2022-09-20T05:00:51.846Z,8.3
2022-09-20T05:10:53.935Z,8.5
2022-09-20T05:20:55.988Z,8.6
2022-09-20T05:30:57.933Z,9.1
2022-09-20T05:41:00.260Z,9.3
2022-09-20T05:51:03.580Z,9.4
2022-09-20T06:01:04.185Z,9.4
2022-09-20T06:11:06.273Z,9.6
2022-09-20T06:21:08.070Z,10
2022-09-20T06:31:09.948Z,10.1
2022-09-20T06:41:11.690Z,10.1
2022-09-20T07:01:22.958Z,10.5
2022-09-20T07:21:20.448Z,10.9
2022-09-20T07:41:24.027Z,11.3
2022-09-20T07:51:26.199Z,11.2
2022-09-20T08:01:27.990Z,11.5
2022-09-20T08:11:30.082Z,11.9
2022-09-20T08:21:31.748Z,11.6
2022-09-20T08:41:35.713Z,11.8
2022-09-20T08:51:37.457Z,11.9
2022-09-20T09:01:39.161Z,12.2
2022-09-20T09:11:45.669Z,12.4
2022-09-20T09:21:42.702Z,12.9
2022-09-20T09:31:44.745Z,12.9
2022-09-20T09:41:46.645Z,13
2022-09-20T10:01:50.289Z,13.1
2022-09-20T10:11:52.684Z,13.6
2022-09-20T10:21:54.508Z,13.6
2022-09-20T10:31:56.672Z,13.8
2022-09-20T10:41:58.473Z,13.9
2022-09-20T11:02:03.100Z,13.8
2022-09-20T11:12:05.595Z,14.1
2022-09-20T11:22:07.294Z,14.5
2022-09-20T11:32:09.082Z,14.4
2022-09-20T11:42:11.462Z,14.9
2022-09-20T11:52:13.600Z,15.1
2022-09-20T12:02:16.038Z,14.5
2022-09-20T12:22:20.258Z,14.6
2022-09-20T12:32:22.072Z,14.5
2022-09-20T12:42:24.641Z,14.6
2022-09-20T13:02:29.229Z,14.4
2022-09-20T13:12:31.070Z,14.4
2022-09-20T13:32:35.388Z,14.8
2022-09-20T13:42:37.286Z,15
2022-09-20T13:52:39.131Z,15.2
2022-09-20T14:02:40.770Z,15
2022-09-20T14:12:42.923Z,15
2022-09-20T14:22:45.512Z,15.4
2022-09-20T14:32:48.111Z,15.1
2022-09-20T14:42:50.122Z,15.3
2022-09-20T14:52:52.078Z,14.8
2022-09-20T14:53:14.022Z,14.8
2022-09-20T15:13:03.569Z,14.9
2022-09-20T15:23:05.704Z,14.9
2022-09-20T15:33:08.076Z,14.7
2022-09-20T15:43:10.033Z,14.7
2022-09-20T15:53:12.163Z,14.6
2022-09-20T16:03:14.679Z,14.5
2022-09-20T16:33:21.233Z,13.9
2022-09-20T16:43:23.162Z,13.8
2022-09-20T16:53:25.571Z,13.6
2022-09-20T17:03:27.545Z,13.1
2022-09-20T17:13:29.202Z,12.8
2022-09-20T17:23:31.306Z,12.6
2022-09-20T17:33:33.485Z,12.4
2022-09-20T17:43:35.997Z,12.2
2022-09-20T18:03:40.289Z,11.8
2022-09-20T18:13:42.137Z,11.8
2022-09-20T18:23:44.565Z,11.6
2022-09-20T18:33:46.492Z,11.5
2022-09-20T18:43:48.829Z,11.3
2022-09-20T18:53:51.015Z,11.2
2022-09-20T19:13:55.624Z,10.8
2022-09-20T19:33:59.770Z,10.1
2022-09-20T19:44:01.982Z,9.8
2022-09-20T19:54:04.269Z,9.6
2022-09-20T20:04:06.423Z,9.5
2022-09-20T20:14:07.989Z,9.4
2022-09-20T20:24:10.410Z,9.2
2022-09-20T20:34:12.883Z,9.1
2022-09-20T20:54:16.785Z,8.9
2022-09-20T21:04:18.731Z,8.9
2022-09-20T21:14:20.688Z,8.7
2022-09-20T21:24:22.937Z,8.5
2022-09-20T21:34:25.197Z,8.3
2022-09-20T21:54:29.650Z,8
2022-09-20T22:14:34.758Z,7.8
2022-09-20T22:24:37.349Z,7.6
2022-09-20T22:34:39.027Z,7.4
2022-09-20T22:44:41.205Z,7.2
2022-09-20T22:54:43.657Z,7.3
2022-09-20T23:04:45.751Z,7.2
2022-09-20T23:14:48.233Z,6.9
